sensor_id;sensor_type;location;lat;lon;timestamp;pressure;altitude;pressure_sealevel;temperature;humidity
54262;BME280;40174;52.364;6.452;2023-09-18T00:00:14;100514.69;;;16.34;100.00
54262;BME280;40174;52.364;6.452;2023-09-18T00:02:41;100525.72;;;16.39;100.00
54262;BME280;40174;52.364;6.452;2023-09-18T00:05:08;100512.88;;;16.35;100.00
54262;BME280;40174;52.364;6.452;2023-09-18T00:07:35;100501.34;;;16.34;100.00
54262;BME280;40174;52.364;6.452;2023-09-18T00:10:02;100500.53;;;16.34;100.00
54262;BME280;40174;52.364;6.452;2023-09-18T00:12:30;100498.69;;;16.34;100.00
54262;BME280;40174;52.364;6.452;2023-09-18T00:14:57;100496.88;;;16.35;100.00
54262;BME280;40174;52.364;6.452;2023-09-18T00:17:23;100495.19;;;16.34;100.00
54262;BME280;40174;52.364;6.452;2023-09-18T00:19:50;100478.88;;;16.37;100.00
54262;BME280;40174;52.364;6.452;2023-09-18T00:22:17;100471.53;;;16.39;100.00
54262;BME280;40174;52.364;6.452;2023-09-18T00:24:44;100469.03;;;16.37;100.00
54262;BME280;40174;52.364;6.452;2023-09-18T00:27:10;100471.88;;;16.36;100.00
54262;BME280;40174;52.364;6.452;2023-09-18T00:29:39;100467.56;;;16.35;100.00
54262;BME280;40174;52.364;6.452;2023-09-18T00:32:06;100462.53;;;16.32;100.00
54262;BME280;40174;52.364;6.452;2023-09-18T00:34:33;100464.38;;;16.31;100.00
54262;BME280;40174;52.364;6.452;2023-09-18T00:37:00;100456.22;;;16.33;100.00
54262;BME280;40174;52.364;6.452;2023-09-18T00:39:27;100456.22;;;16.33;100.00
54262;BME280;40174;52.364;6.452;2023-09-18T00:41:54;100447.38;;;16.32;100.00
54262;BME280;40174;52.364;6.452;2023-09-18T00:44:20;100432.38;;;16.31;100.00
54262;BME280;40174;52.364;6.452;2023-09-18T00:46:49;100417.56;;;16.29;100.00
54262;BME280;40174;52.364;6.452;2023-09-18T00:49:18;100402.53;;;16.28;100.00
54262;BME280;40174;52.364;6.452;2023-09-18T00:51:45;100406.22;;;16.27;100.00
54262;BME280;40174;52.364;6.452;2023-09-18T00:54:15;100404.72;;;16.24;100.00
54262;BME280;40174;52.364;6.452;2023-09-18T00:56:43;100398.72;;;16.22;100.00
54262;BME280;40174;52.364;6.452;2023-09-18T00:59:10;100394.22;;;16.23;100.00
54262;BME280;40174;52.364;6.452;2023-09-18T01:01:39;100403.25;;;16.21;100.00
54262;BME280;40174;52.364;6.452;2023-09-18T01:04:08;100397.09;;;16.21;100.00
54262;BME280;40174;52.364;6.452;2023-09-18T01:06:36;100394.75;;;16.18;100.00
54262;BME280;40174;52.364;6.452;2023-09-18T01:09:03;100392.91;;;16.18;100.00
54262;BME280;40174;52.364;6.452;2023-09-18T01:11:44;100398.06;;;16.20;100.00
54262;BME280;40174;52.364;6.452;2023-09-18T01:14:18;100385.56;;;16.20;100.00
54262;BME280;40174;52.364;6.452;2023-09-18T01:16:51;100377.56;;;16.20;100.00
54262;BME280;40174;52.364;6.452;2023-09-18T01:19:37;100374.22;;;16.18;100.00
54262;BME280;40174;52.364;6.452;2023-09-18T01:22:05;100369.75;;;16.19;100.00
54262;BME280;40174;52.364;6.452;2023-09-18T01:24:34;100370.75;;;16.18;100.00
54262;BME280;40174;52.364;6.452;2023-09-18T01:27:01;100364.44;;;16.19;100.00
54262;BME280;40174;52.364;6.452;2023-09-18T01:29:29;100354.09;;;16.16;100.00
54262;BME280;40174;52.364;6.452;2023-09-18T01:31:56;100348.09;;;16.14;100.00
54262;BME280;40174;52.364;6.452;2023-09-18T01:34:26;100350.75;;;16.14;100.00
54262;BME280;40174;52.364;6.452;2023-09-18T01:36:57;100350.59;;;16.15;100.00
54262;BME280;40174;52.364;6.452;2023-09-18T01:39:25;100345.41;;;16.14;100.00
54262;BME280;40174;52.364;6.452;2023-09-18T01:41:58;100332.94;;;16.14;100.00
54262;BME280;40174;52.364;6.452;2023-09-18T01:44:27;100318.75;;;16.14;100.00
54262;BME280;40174;52.364;6.452;2023-09-18T01:46:55;100320.78;;;16.12;100.00
54262;BME280;40174;52.364;6.452;2023-09-18T01:49:29;100313.13;;;16.09;100.00
54262;BME280;40174;52.364;6.452;2023-09-18T01:51:56;100311.13;;;16.11;100.00
54262;BME280;40174;52.364;6.452;2023-09-18T01:54:23;100308.47;;;16.11;100.00
54262;BME280;40174;52.364;6.452;2023-09-18T01:56:51;100297.97;;;16.09;100.00
54262;BME280;40174;52.364;6.452;2023-09-18T01:59:20;100290.16;;;16.08;100.00
54262;BME280;40174;52.364;6.452;2023-09-18T02:01:47;100281.66;;;16.04;100.00
54262;BME280;40174;52.364;6.452;2023-09-18T02:04:14;100289.66;;;16.04;100.00
54262;BME280;40174;52.364;6.452;2023-09-18T02:06:40;100285.97;;;16.05;100.00
54262;BME280;40174;52.364;6.452;2023-09-18T02:09:07;100269.97;;;16.05;100.00
54262;BME280;40174;52.364;6.452;2023-09-18T02:11:36;100271.66;;;16.06;100.00
54262;BME280;40174;52.364;6.452;2023-09-18T02:14:04;100271.66;;;16.06;100.00
54262;BME280;40174;52.364;6.452;2023-09-18T02:16:32;100272.63;;;16.05;100.00
54262;BME280;40174;52.364;6.452;2023-09-18T02:18:59;100268.16;;;16.06;100.00
54262;BME280;40174;52.364;6.452;2023-09-18T02:21:27;100260.16;;;16.06;100.00
54262;BME280;40174;52.364;6.452;2023-09-18T02:23:54;100261.34;;;16.03;100.00
54262;BME280;40174;52.364;6.452;2023-09-18T02:26:22;100259.50;;;16.04;100.00
54262;BME280;40174;52.364;6.452;2023-09-18T02:28:51;100254.19;;;16.04;100.00
54262;BME280;40174;52.364;6.452;2023-09-18T02:31:18;100263.81;;;16.05;100.00
54262;BME280;40174;52.364;6.452;2023-09-18T02:33:47;100256.84;;;16.04;100.00
54262;BME280;40174;52.364;6.452;2023-09-18T02:36:14;100261.97;;;16.05;100.00
54262;BME280;40174;52.364;6.452;2023-09-18T02:38:40;100258.50;;;16.05;100.00
54262;BME280;40174;52.364;6.452;2023-09-18T02:41:08;100258.31;;;16.06;100.00
54262;BME280;40174;52.364;6.452;2023-09-18T02:43:35;100256.50;;;16.07;100.00
54262;BME280;40174;52.364;6.452;2023-09-18T02:46:03;100251.81;;;16.09;100.00
54262;BME280;40174;52.364;6.452;2023-09-18T02:48:30;100237.47;;;16.10;100.00
54262;BME280;40174;52.364;6.452;2023-09-18T02:50:59;100237.66;;;16.08;100.00
54262;BME280;40174;52.364;6.452;2023-09-18T02:53:25;100225.16;;;16.09;100.00
54262;BME280;40174;52.364;6.452;2023-09-18T02:55:56;100218.19;;;16.08;100.00
54262;BME280;40174;52.364;6.452;2023-09-18T02:58:23;100213.69;;;16.08;100.00
54262;BME280;40174;52.364;6.452;2023-09-18T03:00:53;100205.31;;;16.11;100.00
54262;BME280;40174;52.364;6.452;2023-09-18T03:03:20;100198.13;;;16.12;100.00
54262;BME280;40174;52.364;6.452;2023-09-18T03:05:47;100193.00;;;16.10;100.00
54262;BME280;40174;52.364;6.452;2023-09-18T03:08:15;100180.66;;;16.09;100.00
54262;BME280;40174;52.364;6.452;2023-09-18T03:10:43;100176.34;;;16.08;100.00
54262;BME280;40174;52.364;6.452;2023-09-18T03:13:13;100171.47;;;16.12;100.00
54262;BME280;40174;52.364;6.452;2023-09-18T03:15:44;100159.19;;;16.11;100.00
54262;BME280;40174;52.364;6.452;2023-09-18T03:18:12;100160.16;;;16.10;100.00
54262;BME280;40174;52.364;6.452;2023-09-18T03:20:41;100158.34;;;16.10;100.00
54262;BME280;40174;52.364;6.452;2023-09-18T03:23:08;100134.53;;;16.09;100.00
54262;BME280;40174;52.364;6.452;2023-09-18T03:25:36;100129.03;;;16.10;100.00
54262;BME280;40174;52.364;6.452;2023-09-18T03:28:04;100125.34;;;16.11;100.00
54262;BME280;40174;52.364;6.452;2023-09-18T03:30:32;100111.38;;;16.09;100.00
54262;BME280;40174;52.364;6.452;2023-09-18T03:32:59;100109.34;;;16.11;100.00
54262;BME280;40174;52.364;6.452;2023-09-18T03:35:28;100093.53;;;16.10;100.00
54262;BME280;40174;52.364;6.452;2023-09-18T03:37:55;100083.88;;;16.09;100.00
54262;BME280;40174;52.364;6.452;2023-09-18T03:40:22;100074.25;;;16.08;100.00
54262;BME280;40174;52.364;6.452;2023-09-18T03:42:51;100077.53;;;16.10;100.00
54262;BME280;40174;52.364;6.452;2023-09-18T03:45:17;100069.75;;;16.08;100.00
54262;BME280;40174;52.364;6.452;2023-09-18T03:47:47;100059.25;;;16.07;100.00
54262;BME280;40174;52.364;6.452;2023-09-18T03:50:15;100044.28;;;16.06;100.00
54262;BME280;40174;52.364;6.452;2023-09-18T03:52:42;100050.41;;;16.06;100.00
54262;BME280;40174;52.364;6.452;2023-09-18T03:55:09;100052.28;;;16.06;100.00
54262;BME280;40174;52.364;6.452;2023-09-18T03:57:36;100044.06;;;16.07;100.00
54262;BME280;40174;52.364;6.452;2023-09-18T04:00:05;100040.59;;;16.07;100.00
54262;BME280;40174;52.364;6.452;2023-09-18T04:02:40;100037.75;;;16.08;100.00
54262;BME280;40174;52.364;6.452;2023-09-18T04:05:06;100033.41;;;16.07;100.00
54262;BME280;40174;52.364;6.452;2023-09-18T04:07:35;100029.75;;;16.08;100.00
54262;BME280;40174;52.364;6.452;2023-09-18T04:10:01;100028.06;;;16.07;100.00
54262;BME280;40174;52.364;6.452;2023-09-18T04:12:28;100033.41;;;16.07;100.00
54262;BME280;40174;52.364;6.452;2023-09-18T04:14:55;100021.75;;;16.08;100.00
54262;BME280;40174;52.364;6.452;2023-09-18T04:17:23;100020.94;;;16.08;100.00
54262;BME280;40174;52.364;6.452;2023-09-18T04:19:51;100026.25;;;16.08;100.00
54262;BME280;40174;52.364;6.452;2023-09-18T04:22:17;100030.56;;;16.09;100.00
54262;BME280;40174;52.364;6.452;2023-09-18T04:24:44;100035.91;;;16.09;100.00
54262;BME280;40174;52.364;6.452;2023-09-18T04:27:11;100034.06;;;16.09;100.00
54262;BME280;40174;52.364;6.452;2023-09-18T04:29:37;100038.19;;;16.12;100.00
54262;BME280;40174;52.364;6.452;2023-09-18T04:32:06;100039.72;;;16.14;100.00
54262;BME280;40174;52.364;6.452;2023-09-18T04:34:34;100036.03;;;16.15;100.00
54262;BME280;40174;52.364;6.452;2023-09-18T04:37:01;100021.50;;;16.18;100.00
54262;BME280;40174;52.364;6.452;2023-09-18T04:39:29;100022.97;;;16.20;100.00
54262;BME280;40174;52.364;6.452;2023-09-18T04:42:01;100015.84;;;16.21;100.00
54262;BME280;40174;52.364;6.452;2023-09-18T04:44:30;100015.47;;;16.24;100.00
54262;BME280;40174;52.364;6.452;2023-09-18T04:46:57;100005.25;;;16.28;100.00
54262;BME280;40174;52.364;6.452;2023-09-18T04:49:25;100014.91;;;16.29;100.00
54262;BME280;40174;52.364;6.452;2023-09-18T04:51:54;100016.56;;;16.30;100.00
54262;BME280;40174;52.364;6.452;2023-09-18T04:54:22;100009.22;;;16.32;100.00
54262;BME280;40174;52.364;6.452;2023-09-18T04:56:49;99997.34;;;16.34;100.00
54262;BME280;40174;52.364;6.452;2023-09-18T04:59:16;99998.22;;;16.35;100.00
54262;BME280;40174;52.364;6.452;2023-09-18T05:01:42;99980.38;;;16.35;100.00
54262;BME280;40174;52.364;6.452;2023-09-18T05:04:09;99963.16;;;16.38;100.00
54262;BME280;40174;52.364;6.452;2023-09-18T05:06:36;99961.31;;;16.38;100.00
54262;BME280;40174;52.364;6.452;2023-09-18T05:09:05;99966.47;;;16.40;100.00
54262;BME280;40174;52.364;6.452;2023-09-18T05:11:32;99979.44;;;16.43;100.00
54262;BME280;40174;52.364;6.452;2023-09-18T05:13:59;99983.78;;;16.44;100.00
54262;BME280;40174;52.364;6.452;2023-09-18T05:16:26;99979.09;;;16.46;100.00
54262;BME280;40174;52.364;6.452;2023-09-18T05:18:53;99980.75;;;16.47;100.00
54262;BME280;40174;52.364;6.452;2023-09-18T05:21:20;99979.91;;;16.47;100.00
54262;BME280;40174;52.364;6.452;2023-09-18T05:23:50;99972.28;;;16.44;100.00
54262;BME280;40174;52.364;6.452;2023-09-18T05:26:18;99951.41;;;16.47;100.00
54262;BME280;40174;52.364;6.452;2023-09-18T05:28:45;99954.88;;;16.48;100.00
54262;BME280;40174;52.364;6.452;2023-09-18T05:31:12;99964.84;;;16.54;100.00
54262;BME280;40174;52.364;6.452;2023-09-18T05:33:40;99989.31;;;16.57;100.00
54262;BME280;40174;52.364;6.452;2023-09-18T05:36:07;99991.59;;;16.60;100.00
54262;BME280;40174;52.364;6.452;2023-09-18T05:38:34;100004.78;;;16.62;100.00
54262;BME280;40174;52.364;6.452;2023-09-18T05:40:59;99999.88;;;16.66;100.00
54262;BME280;40174;52.364;6.452;2023-09-18T05:43:27;99991.72;;;16.67;100.00
54262;BME280;40174;52.364;6.452;2023-09-18T05:45:55;99999.81;;;16.74;100.00
54262;BME280;40174;52.364;6.452;2023-09-18T05:48:22;99996.06;;;16.83;100.00
54262;BME280;40174;52.364;6.452;2023-09-18T05:50:48;99993.88;;;16.87;100.00
54262;BME280;40174;52.364;6.452;2023-09-18T05:53:15;100005.19;;;16.89;100.00
54262;BME280;40174;52.364;6.452;2023-09-18T05:55:42;100010.31;;;16.90;100.00
54262;BME280;40174;52.364;6.452;2023-09-18T05:58:09;100004.53;;;17.01;100.00
54262;BME280;40174;52.364;6.452;2023-09-18T06:00:37;100011.78;;;17.08;100.00
54262;BME280;40174;52.364;6.452;2023-09-18T06:03:04;100011.88;;;17.14;100.00
54262;BME280;40174;52.364;6.452;2023-09-18T06:05:32;100018.34;;;17.20;100.00
54262;BME280;40174;52.364;6.452;2023-09-18T06:07:59;100023.75;;;17.27;100.00
54262;BME280;40174;52.364;6.452;2023-09-18T06:10:26;100028.41;;;17.39;100.00
54262;BME280;40174;52.364;6.452;2023-09-18T06:12:53;100036.06;;;17.42;100.00
54262;BME280;40174;52.364;6.452;2023-09-18T06:15:20;100023.88;;;17.55;100.00
54262;BME280;40174;52.364;6.452;2023-09-18T06:17:48;100034.63;;;17.61;100.00
54262;BME280;40174;52.364;6.452;2023-09-18T06:20:15;100043.94;;;17.65;100.00
54262;BME280;40174;52.364;6.452;2023-09-18T06:22:42;100033.06;;;17.67;100.00
54262;BME280;40174;52.364;6.452;2023-09-18T06:25:09;100032.88;;;17.69;100.00
54262;BME280;40174;52.364;6.452;2023-09-18T06:27:36;100041.91;;;17.67;100.00
54262;BME280;40174;52.364;6.452;2023-09-18T06:30:04;100056.28;;;17.66;100.00
54262;BME280;40174;52.364;6.452;2023-09-18T06:32:31;100078.28;;;17.69;100.00
54262;BME280;40174;52.364;6.452;2023-09-18T06:35:00;100076.66;;;17.67;100.00
54262;BME280;40174;52.364;6.452;2023-09-18T06:37:27;100049.53;;;17.71;100.00
54262;BME280;40174;52.364;6.452;2023-09-18T06:39:53;100047.91;;;17.70;100.00
54262;BME280;40174;52.364;6.452;2023-09-18T06:42:20;100040.69;;;17.70;100.00
54262;BME280;40174;52.364;6.452;2023-09-18T06:44:56;100035.44;;;17.77;100.00
54262;BME280;40174;52.364;6.452;2023-09-18T06:47:22;100028.44;;;17.76;100.00
54262;BME280;40174;52.364;6.452;2023-09-18T06:49:49;100028.69;;;17.81;100.00
54262;BME280;40174;52.364;6.452;2023-09-18T06:52:18;100031.47;;;17.88;100.00
54262;BME280;40174;52.364;6.452;2023-09-18T06:54:44;100031.91;;;17.91;100.00
54262;BME280;40174;52.364;6.452;2023-09-18T06:57:11;100038.91;;;17.92;100.00
54262;BME280;40174;52.364;6.452;2023-09-18T06:59:38;100034.22;;;17.94;100.00
54262;BME280;40174;52.364;6.452;2023-09-18T07:02:04;100027.81;;;17.95;100.00
54262;BME280;40174;52.364;6.452;2023-09-18T07:04:31;100036.06;;;17.94;100.00
54262;BME280;40174;52.364;6.452;2023-09-18T07:06:58;100034.22;;;17.94;100.00
54262;BME280;40174;52.364;6.452;2023-09-18T07:09:26;100035.47;;;17.98;100.00
54262;BME280;40174;52.364;6.452;2023-09-18T07:11:53;100025.69;;;18.05;100.00
54262;BME280;40174;52.364;6.452;2023-09-18T07:14:20;100028.34;;;18.05;100.00
54262;BME280;40174;52.364;6.452;2023-09-18T07:16:47;100013.94;;;18.06;100.00
54262;BME280;40174;52.364;6.452;2023-09-18T07:19:13;100027.59;;;18.12;100.00
54262;BME280;40174;52.364;6.452;2023-09-18T07:21:43;100042.03;;;18.17;100.00
54262;BME280;40174;52.364;6.452;2023-09-18T07:24:10;100043.13;;;18.23;100.00
54262;BME280;40174;52.364;6.452;2023-09-18T07:26:45;100050.75;;;18.26;100.00
54262;BME280;40174;52.364;6.452;2023-09-18T07:29:12;100055.34;;;18.32;100.00
54262;BME280;40174;52.364;6.452;2023-09-18T07:31:41;100058.00;;;18.32;100.00
54262;BME280;40174;52.364;6.452;2023-09-18T07:34:07;100062.97;;;18.35;100.00
54262;BME280;40174;52.364;6.452;2023-09-18T07:36:34;100063.59;;;18.37;100.00
54262;BME280;40174;52.364;6.452;2023-09-18T07:39:01;100064.88;;;18.41;100.00
54262;BME280;40174;52.364;6.452;2023-09-18T07:41:28;100057.09;;;18.46;100.00
54262;BME280;40174;52.364;6.452;2023-09-18T07:43:55;100072.56;;;18.51;100.00
54262;BME280;40174;52.364;6.452;2023-09-18T07:46:24;100075.06;;;18.53;100.00
54262;BME280;40174;52.364;6.452;2023-09-18T07:48:51;100056.75;;;18.56;100.00
54262;BME280;40174;52.364;6.452;2023-09-18T07:51:17;100054.13;;;18.63;100.00
54262;BME280;40174;52.364;6.452;2023-09-18T07:53:44;100065.28;;;18.66;100.00
54262;BME280;40174;52.364;6.452;2023-09-18T07:56:11;100069.66;;;18.74;100.00
54262;BME280;40174;52.364;6.452;2023-09-18T07:58:38;100056.78;;;18.84;100.00
54262;BME280;40174;52.364;6.452;2023-09-18T08:01:06;100057.41;;;18.86;100.00
54262;BME280;40174;52.364;6.452;2023-09-18T08:03:34;100063.19;;;18.90;100.00
54262;BME280;40174;52.364;6.452;2023-09-18T08:06:01;100069.44;;;18.97;100.00
54262;BME280;40174;52.364;6.452;2023-09-18T08:08:30;100091.09;;;19.02;100.00
54262;BME280;40174;52.364;6.452;2023-09-18T08:11:00;100067.44;;;19.06;100.00
54262;BME280;40174;52.364;6.452;2023-09-18T08:13:33;100061.69;;;19.09;100.00
54262;BME280;40174;52.364;6.452;2023-09-18T08:16:00;100076.94;;;19.08;100.00
54262;BME280;40174;52.364;6.452;2023-09-18T08:18:28;100075.69;;;19.11;100.00
54262;BME280;40174;52.364;6.452;2023-09-18T08:20:54;100074.28;;;19.15;100.00
54262;BME280;40174;52.364;6.452;2023-09-18T08:23:23;100073.25;;;19.16;100.00
54262;BME280;40174;52.364;6.452;2023-09-18T08:25:49;100096.13;;;19.19;100.00
54262;BME280;40174;52.364;6.452;2023-09-18T08:28:16;100097.56;;;19.21;100.00
54262;BME280;40174;52.364;6.452;2023-09-18T08:30:43;100104.41;;;19.24;100.00
54262;BME280;40174;52.364;6.452;2023-09-18T08:33:12;100099.47;;;19.27;100.00
54262;BME280;40174;52.364;6.452;2023-09-18T08:35:40;100088.38;;;19.30;100.00
54262;BME280;40174;52.364;6.452;2023-09-18T08:38:07;100082.81;;;19.32;100.00
54262;BME280;40174;52.364;6.452;2023-09-18T08:40:34;100099.13;;;19.37;100.00
54262;BME280;40174;52.364;6.452;2023-09-18T08:43:01;100097.28;;;19.38;100.00
54262;BME280;40174;52.364;6.452;2023-09-18T08:45:35;100111.31;;;19.40;100.00
54262;BME280;40174;52.364;6.452;2023-09-18T08:48:05;100112.53;;;19.37;100.00
54262;BME280;40174;52.364;6.452;2023-09-18T08:50:33;100102.63;;;19.38;100.00
54262;BME280;40174;52.364;6.452;2023-09-18T08:53:01;100103.03;;;19.41;100.00
54262;BME280;40174;52.364;6.452;2023-09-18T08:55:28;100101.81;;;19.44;100.00
54262;BME280;40174;52.364;6.452;2023-09-18T08:57:57;100108.84;;;19.45;100.00
54262;BME280;40174;52.364;6.452;2023-09-18T09:00:25;100110.50;;;19.46;100.00
54262;BME280;40174;52.364;6.452;2023-09-18T09:02:52;100110.53;;;19.52;100.00
54262;BME280;40174;52.364;6.452;2023-09-18T09:05:19;100109.09;;;19.57;100.00
54262;BME280;40174;52.364;6.452;2023-09-18T09:07:46;100115.53;;;19.62;100.00
54262;BME280;40174;52.364;6.452;2023-09-18T09:10:14;100099.84;;;19.66;100.00
54262;BME280;40174;52.364;6.452;2023-09-18T09:12:49;100100.78;;;19.73;100.00
54262;BME280;40174;52.364;6.452;2023-09-18T09:15:16;100096.00;;;19.75;100.00
54262;BME280;40174;52.364;6.452;2023-09-18T09:17:43;100096.25;;;19.80;100.00
54262;BME280;40174;52.364;6.452;2023-09-18T09:20:11;100101.00;;;19.85;100.00
54262;BME280;40174;52.364;6.452;2023-09-18T09:22:38;100111.50;;;19.86;100.00
54262;BME280;40174;52.364;6.452;2023-09-18T09:25:21;100121.88;;;19.96;100.00
54262;BME280;40174;52.364;6.452;2023-09-18T09:27:48;100116.72;;;20.01;100.00
54262;BME280;40174;52.364;6.452;2023-09-18T09:30:19;100127.66;;;20.06;100.00
54262;BME280;40174;52.364;6.452;2023-09-18T09:32:48;100116.94;;;20.06;100.00
54262;BME280;40174;52.364;6.452;2023-09-18T09:35:22;100127.47;;;20.08;100.00
54262;BME280;40174;52.364;6.452;2023-09-18T09:37:50;100127.50;;;20.14;100.00
54262;BME280;40174;52.364;6.452;2023-09-18T09:40:20;100132.22;;;20.12;100.00
54262;BME280;40174;52.364;6.452;2023-09-18T09:42:47;100129.53;;;20.12;100.00
54262;BME280;40174;52.364;6.452;2023-09-18T09:45:15;100128.13;;;20.17;100.00
54262;BME280;40174;52.364;6.452;2023-09-18T09:47:42;100129.56;;;20.19;100.00
54262;BME280;40174;52.364;6.452;2023-09-18T09:50:10;100136.34;;;20.15;100.00
54262;BME280;40174;52.364;6.452;2023-09-18T09:52:42;100127.69;;;20.20;100.00
54262;BME280;40174;52.364;6.452;2023-09-18T09:55:22;100139.66;;;20.17;100.00
54262;BME280;40174;52.364;6.452;2023-09-18T09:57:52;100145.84;;;20.18;100.00
54262;BME280;40174;52.364;6.452;2023-09-18T10:00:19;100142.38;;;20.24;100.00
54262;BME280;40174;52.364;6.452;2023-09-18T10:02:55;100163.03;;;20.30;100.00
54262;BME280;40174;52.364;6.452;2023-09-18T10:05:25;100154.97;;;20.30;100.00
54262;BME280;40174;52.364;6.452;2023-09-18T10:07:54;100156.88;;;20.43;100.00
54262;BME280;40174;52.364;6.452;2023-09-18T10:10:29;100158.50;;;20.44;100.00
54262;BME280;40174;52.364;6.452;2023-09-18T10:12:57;100153.81;;;20.59;100.00
54262;BME280;40174;52.364;6.452;2023-09-18T10:15:28;100151.75;;;20.68;100.00
54262;BME280;40174;52.364;6.452;2023-09-18T10:18:00;100147.41;;;20.73;100.00
54262;BME280;40174;52.364;6.452;2023-09-18T10:20:27;100163.53;;;20.80;100.00
54262;BME280;40174;52.364;6.452;2023-09-18T10:22:56;100157.75;;;20.90;100.00
54262;BME280;40174;52.364;6.452;2023-09-18T10:25:29;100162.91;;;21.05;100.00
54262;BME280;40174;52.364;6.452;2023-09-18T10:27:57;100163.94;;;20.97;100.00
54262;BME280;40174;52.364;6.452;2023-09-18T10:30:27;100162.69;;;21.06;100.00
54262;BME280;40174;52.364;6.452;2023-09-18T10:32:56;100169.50;;;21.02;100.00
54262;BME280;40174;52.364;6.452;2023-09-18T10:35:23;100170.94;;;21.11;100.00
54262;BME280;40174;52.364;6.452;2023-09-18T10:37:51;100184.78;;;21.22;100.00
54262;BME280;40174;52.364;6.452;2023-09-18T10:40:21;100191.00;;;21.42;100.00
54262;BME280;40174;52.364;6.452;2023-09-18T10:42:52;100184.47;;;21.83;100.00
54262;BME280;40174;52.364;6.452;2023-09-18T10:45:20;100182.56;;;21.90;100.00
54262;BME280;40174;52.364;6.452;2023-09-18T10:47:48;100187.53;;;21.93;100.00
54262;BME280;40174;52.364;6.452;2023-09-18T10:50:23;100187.00;;;22.16;100.00
54262;BME280;40174;52.364;6.452;2023-09-18T10:52:50;100186.31;;;22.34;100.00
54262;BME280;40174;52.364;6.452;2023-09-18T10:55:17;100182.84;;;22.27;100.00
54262;BME280;40174;52.364;6.452;2023-09-18T10:57:53;100187.41;;;22.27;100.00
54262;BME280;40174;52.364;6.452;2023-09-18T11:00:21;100177.50;;;22.14;100.00
54262;BME280;40174;52.364;6.452;2023-09-18T11:02:51;100182.34;;;21.98;100.00
54262;BME280;40174;52.364;6.452;2023-09-18T11:05:30;100196.38;;;22.07;100.00
54262;BME280;40174;52.364;6.452;2023-09-18T11:08:26;100193.53;;;21.95;100.00
54262;BME280;40174;52.364;6.452;2023-09-18T11:11:01;100195.44;;;21.82;100.00
54262;BME280;40174;52.364;6.452;2023-09-18T11:13:38;100181.63;;;22.16;100.00
54262;BME280;40174;52.364;6.452;2023-09-18T11:16:32;100182.66;;;22.29;100.00
54262;BME280;40174;52.364;6.452;2023-09-18T11:19:11;100181.91;;;22.47;100.00
54262;BME280;40174;52.364;6.452;2023-09-18T11:21:39;100172.81;;;22.41;100.00
54262;BME280;40174;52.364;6.452;2023-09-18T11:24:07;100179.09;;;22.28;100.00
54262;BME280;40174;52.364;6.452;2023-09-18T11:26:39;100176.22;;;22.30;100.00
54262;BME280;40174;52.364;6.452;2023-09-18T11:29:08;100170.72;;;22.05;100.00
54262;BME280;40174;52.364;6.452;2023-09-18T11:31:43;100173.28;;;21.86;100.00
54262;BME280;40174;52.364;6.452;2023-09-18T11:34:20;100165.03;;;21.74;100.00
54262;BME280;40174;52.364;6.452;2023-09-18T11:36:48;100165.03;;;21.74;100.00
54262;BME280;40174;52.364;6.452;2023-09-18T11:39:33;100163.59;;;21.78;100.00
54262;BME280;40174;52.364;6.452;2023-09-18T11:42:07;100160.06;;;22.30;100.00
54262;BME280;40174;52.364;6.452;2023-09-18T11:44:37;100147.91;;;22.77;100.00
54262;BME280;40174;52.364;6.452;2023-09-18T11:47:09;100160.38;;;23.03;100.00
54262;BME280;40174;52.364;6.452;2023-09-18T11:49:46;100170.06;;;23.04;100.00
54262;BME280;40174;52.364;6.452;2023-09-18T11:52:16;100168.44;;;22.78;100.00
54262;BME280;40174;52.364;6.452;2023-09-18T11:54:43;100167.31;;;22.61;100.00
54262;BME280;40174;52.364;6.452;2023-09-18T11:57:12;100173.97;;;22.58;100.00
54262;BME280;40174;52.364;6.452;2023-09-18T11:59:41;100169.34;;;22.66;100.00
54262;BME280;40174;52.364;6.452;2023-09-18T12:02:09;100172.28;;;22.89;100.00
54262;BME280;40174;52.364;6.452;2023-09-18T12:04:36;100172.59;;;23.24;100.00
54262;BME280;40174;52.364;6.452;2023-09-18T12:07:04;100172.09;;;23.34;100.00
54262;BME280;40174;52.364;6.452;2023-09-18T12:09:32;100169.75;;;23.56;100.00
54262;BME280;40174;52.364;6.452;2023-09-18T12:11:59;100172.88;;;23.78;100.00
54262;BME280;40174;52.364;6.452;2023-09-18T12:14:30;100163.72;;;23.98;100.00
54262;BME280;40174;52.364;6.452;2023-09-18T12:16:59;100159.84;;;24.05;96.65
54262;BME280;40174;52.364;6.452;2023-09-18T12:19:26;100171.22;;;24.26;97.81
54262;BME280;40174;52.364;6.452;2023-09-18T12:21:52;100168.75;;;24.24;96.16
54262;BME280;40174;52.364;6.452;2023-09-18T12:24:21;100163.25;;;24.31;93.78
54262;BME280;40174;52.364;6.452;2023-09-18T12:26:48;100154.53;;;24.47;92.90
54262;BME280;40174;52.364;6.452;2023-09-18T12:29:15;100164.53;;;24.28;92.93
54262;BME280;40174;52.364;6.452;2023-09-18T12:31:42;100165.03;;;23.77;94.47
54262;BME280;40174;52.364;6.452;2023-09-18T12:34:17;100168.53;;;23.59;96.92
54262;BME280;40174;52.364;6.452;2023-09-18T12:36:47;100168.19;;;23.30;99.07
54262;BME280;40174;52.364;6.452;2023-09-18T12:39:14;100169.16;;;23.17;100.00
54262;BME280;40174;52.364;6.452;2023-09-18T12:41:43;100165.00;;;22.90;100.00
54262;BME280;40174;52.364;6.452;2023-09-18T12:44:10;100169.28;;;22.72;100.00
54262;BME280;40174;52.364;6.452;2023-09-18T12:46:38;100165.78;;;22.72;100.00